Time;durP1;ratioP1;P1;durP2;ratioP2;P2;SDS_P1;SDS_P2;PMS_P1;PMS_P2;Temp;Humidity;BMP_temperature;BMP_pressure;BME280_temperature;BME280_humidity;BME280_pressure;Samples;Min_cycle;Max_cycle;Signal;HPM_P1;HPM_P2
2022/09/13 00:01:32;;;;;;;;;;;21.50;65.10;;;;;;4975541;28;852;-68
2022/09/13 00:03:57;;;;;;;;;;;21.50;65.10;;;;;;4975547;28;867;-69
2022/09/13 00:06:23;;;;;;;;;;;21.50;65.20;;;;;;4975060;28;1294;-68
2022/09/13 00:08:48;;;;;;;;;;;21.50;65.20;;;;;;4974717;28;880;-68
2022/09/13 00:11:15;;;;;;;;;;;21.50;65.20;;;;;;4973782;28;888;-68
2022/09/13 00:13:41;;;;;;;;;;;21.50;65.30;;;;;;4973729;28;1906;-68
2022/09/13 00:16:09;;;;;;;;;;;21.50;65.30;;;;;;4987130;28;1149;-68
2022/09/13 00:18:34;;;;;;;;;;;21.50;65.30;;;;;;4993908;28;1220;-68
2022/09/13 00:21:03;;;;;;;;;;;21.50;65.30;;;;;;4994307;28;911;-68
2022/09/13 00:23:29;;;;;;;;;;;21.50;65.40;;;;;;4993439;28;832;-68
2022/09/13 00:26:02;;;;;;;;;;;21.50;65.40;;;;;;4994078;28;808;-68
2022/09/13 00:28:27;;;;;;;;;;;21.50;65.40;;;;;;4993541;28;1307;-68
2022/09/13 00:30:53;;;;;;;;;;;21.50;65.50;;;;;;4993962;28;1081;-68
2022/09/13 00:33:18;;;;;;;;;;;21.50;65.50;;;;;;4975313;28;1918;-69
2022/09/13 00:35:43;;;;;;;;;;;21.50;65.50;;;;;;4974988;28;841;-68
2022/09/13 00:38:09;;;;;;;;;;;21.50;65.50;;;;;;4974006;28;1229;-69
2022/09/13 00:40:37;;;;;;;;;;;21.50;65.60;;;;;;4974147;28;876;-68
2022/09/13 00:43:03;;;;;;;;;;;21.50;65.60;;;;;;4974771;28;781;-68
2022/09/13 00:45:28;;;;;;;;;;;21.50;65.60;;;;;;4974250;28;1002;-68
2022/09/13 00:47:58;;;;;;;;;;;21.50;65.60;;;;;;4977023;28;1306;-68
2022/09/13 00:50:23;;;;;;;;;;;21.50;65.60;;;;;;4992514;28;834;-68
2022/09/13 00:52:50;;;;;;;;;;;21.50;65.60;;;;;;4994010;28;1968;-68
2022/09/13 00:55:19;;;;;;;;;;;21.50;65.60;;;;;;4993568;28;1069;-68
2022/09/13 00:57:44;;;;;;;;;;;21.50;65.70;;;;;;4992316;28;1232;-68
2022/09/13 01:00:16;;;;;;;;;;;21.50;65.70;;;;;;4992183;28;1210;-68
2022/09/13 01:02:43;;;;;;;;;;;21.50;65.70;;;;;;4990026;28;1383;-68
2022/09/13 01:05:09;;;;;;;;;;;21.50;65.70;;;;;;4991167;28;1261;-68
2022/09/13 01:07:34;;;;;;;;;;;21.50;65.70;;;;;;4990428;28;1330;-68
2022/09/13 01:10:00;;;;;;;;;;;21.50;65.80;;;;;;4990913;28;1899;-68
2022/09/13 01:12:32;;;;;;;;;;;21.50;65.70;;;;;;4991151;28;1193;-68
2022/09/13 01:14:58;;;;;;;;;;;21.50;65.80;;;;;;4993466;28;2742;-69
2022/09/13 01:17:25;;;;;;;;;;;21.50;65.80;;;;;;4993161;28;1221;-70
2022/09/13 01:19:50;;;;;;;;;;;21.50;65.90;;;;;;4975626;28;1270;-68
2022/09/13 01:22:15;;;;;;;;;;;21.50;65.90;;;;;;4992063;28;1217;-69
2022/09/13 01:24:59;;;;;;;;;;;21.50;65.80;;;;;;4993418;28;1281;-69
2022/09/13 01:27:39;;;;;;;;;;;21.50;65.90;;;;;;4991136;28;1293;-69
2022/09/13 01:30:12;;;;;;;;;;;21.50;66.00;;;;;;4991616;28;1202;-69
2022/09/13 01:32:42;;;;;;;;;;;21.50;66.00;;;;;;4989403;28;1214;-68
2022/09/13 01:35:26;;;;;;;;;;;21.50;66.00;;;;;;4992139;28;1226;-69
2022/09/13 01:38:10;;;;;;;;;;;21.50;66.00;;;;;;4992493;28;1272;-68
2022/09/13 01:40:56;;;;;;;;;;;21.50;66.00;;;;;;4992387;28;1376;-67
2022/09/13 01:43:36;;;;;;;;;;;21.50;66.00;;;;;;4990859;28;1151;-70
2022/09/13 01:46:05;;;;;;;;;;;21.50;66.10;;;;;;4991838;28;1305;-69
2022/09/13 01:48:30;;;;;;;;;;;21.50;66.10;;;;;;4991654;28;1297;-69
2022/09/13 01:51:03;;;;;;;;;;;21.50;66.10;;;;;;4992829;28;1384;-71
2022/09/13 01:53:41;;;;;;;;;;;21.50;66.10;;;;;;4991880;28;1977;-71
2022/09/13 01:56:10;;;;;;;;;;;21.50;66.20;;;;;;4990108;28;1301;-68
2022/09/13 01:58:51;;;;;;;;;;;21.50;66.20;;;;;;4991861;28;1272;-70
2022/09/13 02:01:18;;;;;;;;;;;21.50;66.20;;;;;;4992726;28;1170;-69
2022/09/13 02:03:49;;;;;;;;;;;21.50;66.20;;;;;;4991694;28;1206;-69
2022/09/13 02:06:16;;;;;;;;;;;21.50;66.20;;;;;;4991851;28;1250;-68
2022/09/13 02:08:46;;;;;;;;;;;21.50;66.30;;;;;;4991049;28;1230;-70
2022/09/13 02:11:16;;;;;;;;;;;21.50;66.30;;;;;;4991704;28;917;-69
2022/09/13 02:14:01;;;;;;;;;;;21.50;66.20;;;;;;4991999;28;1915;-68
2022/09/13 02:16:34;;;;;;;;;;;21.50;66.30;;;;;;4984769;28;1345;-71
2022/09/13 02:19:08;;;;;;;;;;;21.50;66.30;;;;;;4990130;28;1295;-69
2022/09/13 02:21:35;;;;;;;;;;;21.50;66.30;;;;;;4992151;28;911;-69
2022/09/13 02:24:09;;;;;;;;;;;21.50;66.30;;;;;;4992153;28;870;-69
2022/09/13 02:26:34;;;;;;;;;;;21.50;66.30;;;;;;4991819;28;1291;-69
2022/09/13 02:29:01;;;;;;;;;;;21.50;66.40;;;;;;4991300;28;916;-69
2022/09/13 02:31:32;;;;;;;;;;;21.50;66.30;;;;;;4991814;28;1156;-68
2022/09/13 02:33:59;;;;;;;;;;;21.50;66.40;;;;;;4991905;28;1927;-68
2022/09/13 02:36:28;;;;;;;;;;;21.50;66.40;;;;;;4991482;28;1226;-68
2022/09/13 02:39:00;;;;;;;;;;;21.50;66.40;;;;;;4991454;28;885;-68
2022/09/13 02:41:32;;;;;;;;;;;21.50;66.50;;;;;;4993017;28;931;-68
2022/09/13 02:44:00;;;;;;;;;;;21.50;66.40;;;;;;4992967;28;859;-68
2022/09/13 02:46:34;;;;;;;;;;;21.50;66.40;;;;;;4991441;28;1302;-68
2022/09/13 02:49:03;;;;;;;;;;;21.50;66.50;;;;;;4991490;28;804;-68
2022/09/13 02:51:38;;;;;;;;;;;21.50;66.50;;;;;;4991658;28;825;-68
2022/09/13 02:54:19;;;;;;;;;;;21.50;66.50;;;;;;4991850;28;1958;-68
2022/09/13 02:56:48;;;;;;;;;;;21.50;66.50;;;;;;4996032;28;1277;-68
2022/09/13 02:59:14;;;;;;;;;;;21.50;66.50;;;;;;4994973;28;844;-68
2022/09/13 03:01:40;;;;;;;;;;;21.50;66.60;;;;;;4995262;28;813;-68
2022/09/13 03:04:06;;;;;;;;;;;21.50;66.60;;;;;;4995387;28;867;-68
2022/09/13 03:06:31;;;;;;;;;;;21.50;66.60;;;;;;4996152;28;1338;-68
2022/09/13 03:08:58;;;;;;;;;;;21.50;66.60;;;;;;4996006;28;854;-68
2022/09/13 03:11:23;;;;;;;;;;;21.50;66.60;;;;;;4994969;28;828;-68
2022/09/13 03:14:13;;;;;;;;;;;21.50;66.60;;;;;;4996251;28;1902;-68
2022/09/13 03:17:08;;;;;;;;;;;21.50;66.60;;;;;;4994242;28;1293;-68
2022/09/13 03:19:52;;;;;;;;;;;21.50;66.60;;;;;;4982357;28;1091;-68
2022/09/13 03:22:23;;;;;;;;;;;21.50;66.70;;;;;;4995743;28;899;-70
2022/09/13 03:24:57;;;;;;;;;;;21.50;66.70;;;;;;4994780;28;923;-70
2022/09/13 03:27:27;;;;;;;;;;;21.50;66.70;;;;;;4994501;28;1286;-70
2022/09/13 03:29:57;;;;;;;;;;;21.50;66.70;;;;;;4994085;28;840;-69
2022/09/13 03:32:25;;;;;;;;;;;21.50;67.50;;;;;;4995763;28;1130;-69
2022/09/13 03:34:54;;;;;;;;;;;21.50;66.70;;;;;;4994519;28;1973;-69
2022/09/13 03:37:22;;;;;;;;;;;21.50;66.70;;;;;;4994275;28;2172;-69
2022/09/13 03:39:51;;;;;;;;;;;21.50;66.80;;;;;;4994960;28;1141;-69
2022/09/13 03:42:38;;;;;;;;;;;21.50;66.80;;;;;;4975285;28;1167;-68
2022/09/13 03:45:04;;;;;;;;;;;21.50;66.80;;;;;;4975174;28;1041;-69
2022/09/13 03:47:31;;;;;;;;;;;21.50;66.80;;;;;;4959012;28;1298;-70
2022/09/13 03:49:56;;;;;;;;;;;21.50;66.80;;;;;;4974286;28;866;-69
2022/09/13 03:52:22;;;;;;;;;;;21.50;66.80;;;;;;4975065;28;814;-69
2022/09/13 03:54:47;;;;;;;;;;;21.50;66.80;;;;;;4975896;28;1948;-69
2022/09/13 03:57:13;;;;;;;;;;;21.50;66.80;;;;;;4975879;28;1281;-69
2022/09/13 03:59:40;;;;;;;;;;;21.50;66.90;;;;;;4975511;28;789;-69
2022/09/13 04:02:09;;;;;;;;;;;21.50;66.90;;;;;;4974637;28;975;-69
2022/09/13 04:04:35;;;;;;;;;;;21.50;66.90;;;;;;4974526;28;883;-69
2022/09/13 04:07:03;;;;;;;;;;;21.50;66.90;;;;;;4975754;28;1189;-69
2022/09/13 04:09:29;;;;;;;;;;;21.50;66.90;;;;;;4975791;28;785;-69
2022/09/13 04:11:54;;;;;;;;;;;21.50;66.90;;;;;;4983957;28;1338;-69
2022/09/13 04:14:20;;;;;;;;;;;21.50;66.90;;;;;;4995223;28;1891;-69
2022/09/13 04:16:45;;;;;;;;;;;21.50;66.90;;;;;;4976166;28;1205;-69
2022/09/13 04:19:11;;;;;;;;;;;21.50;67.00;;;;;;4975001;28;813;-69
2022/09/13 04:21:37;;;;;;;;;;;21.50;67.00;;;;;;4975545;28;932;-70
2022/09/13 04:24:02;;;;;;;;;;;21.50;67.00;;;;;;4975661;28;915;-70
2022/09/13 04:26:28;;;;;;;;;;;21.50;67.00;;;;;;4974981;28;1201;-70
2022/09/13 04:28:53;;;;;;;;;;;21.50;67.00;;;;;;4993806;28;1288;-70
2022/09/13 04:31:18;;;;;;;;;;;21.50;67.00;;;;;;4994848;28;1114;-69
2022/09/13 04:33:44;;;;;;;;;;;21.50;67.00;;;;;;4994351;28;1902;-68
2022/09/13 04:36:09;;;;;;;;;;;21.50;67.00;;;;;;4995395;28;839;-69
2022/09/13 04:38:36;;;;;;;;;;;21.50;67.00;;;;;;4993511;28;1588;-69
2022/09/13 04:41:01;;;;;;;;;;;21.50;67.00;;;;;;4985325;28;1195;-68
2022/09/13 04:43:27;;;;;;;;;;;21.50;67.00;;;;;;4974033;28;950;-68
2022/09/13 04:45:52;;;;;;;;;;;21.50;67.10;;;;;;4975098;28;908;-68
2022/09/13 04:48:18;;;;;;;;;;;21.50;67.10;;;;;;4973266;28;1318;-68
2022/09/13 04:50:43;;;;;;;;;;;21.50;67.10;;;;;;4974414;28;873;-68
2022/09/13 04:53:09;;;;;;;;;;;21.50;67.10;;;;;;4974664;28;1949;-68
2022/09/13 04:55:35;;;;;;;;;;;21.50;67.10;;;;;;4974793;28;830;-67
2022/09/13 04:58:01;;;;;;;;;;;21.50;67.10;;;;;;4974789;28;1193;-69
2022/09/13 05:00:27;;;;;;;;;;;21.50;67.10;;;;;;4974285;28;879;-68
2022/09/13 05:02:55;;;;;;;;;;;21.50;67.20;;;;;;4974195;28;837;-69
2022/09/13 05:05:21;;;;;;;;;;;21.50;67.10;;;;;;4973852;28;737;-69
2022/09/13 05:07:50;;;;;;;;;;;21.50;67.10;;;;;;4974971;28;1212;-68
2022/09/13 05:10:15;;;;;;;;;;;21.50;67.20;;;;;;4973207;28;887;-70
2022/09/13 05:12:41;;;;;;;;;;;21.50;67.10;;;;;;4974797;28;915;-69
2022/09/13 05:15:06;;;;;;;;;;;21.50;67.10;;;;;;4978333;28;1895;-70
2022/09/13 05:17:32;;;;;;;;;;;21.50;67.10;;;;;;4992732;28;1204;-69
2022/09/13 05:19:57;;;;;;;;;;;21.50;67.20;;;;;;4993338;28;963;-69
2022/09/13 05:22:22;;;;;;;;;;;21.50;67.20;;;;;;4993570;28;1058;-70
2022/09/13 05:24:48;;;;;;;;;;;21.50;67.20;;;;;;4993723;28;1003;-69
2022/09/13 05:27:13;;;;;;;;;;;21.50;67.20;;;;;;4993704;28;1227;-69
2022/09/13 05:29:39;;;;;;;;;;;21.50;67.20;;;;;;4992730;28;781;-69
2022/09/13 05:32:04;;;;;;;;;;;21.50;67.20;;;;;;4984560;28;1129;-69
2022/09/13 05:34:30;;;;;;;;;;;21.50;67.20;;;;;;4974356;28;1973;-69
2022/09/13 05:36:55;;;;;;;;;;;21.50;67.20;;;;;;4974308;28;1208;-69
2022/09/13 05:39:21;;;;;;;;;;;21.50;67.20;;;;;;4973459;28;800;-69
2022/09/13 05:41:47;;;;;;;;;;;21.50;67.20;;;;;;4974173;28;848;-69
2022/09/13 05:44:12;;;;;;;;;;;21.50;67.20;;;;;;4973099;28;915;-69
2022/09/13 05:46:38;;;;;;;;;;;21.50;67.30;;;;;;4974145;28;1212;-69
2022/09/13 05:49:03;;;;;;;;;;;21.50;67.20;;;;;;4973729;28;888;-69
2022/09/13 05:51:29;;;;;;;;;;;21.50;67.30;;;;;;4973508;28;840;-69
2022/09/13 05:53:56;;;;;;;;;;;21.50;67.30;;;;;;4973913;28;1906;-69
2022/09/13 05:56:25;;;;;;;;;;;21.50;68.10;;;;;;4973954;28;1220;-69
2022/09/13 05:58:50;;;;;;;;;;;21.50;67.40;;;;;;4973496;28;899;-68
2022/09/13 06:01:17;;;;;;;;;;;21.50;67.40;;;;;;4975119;28;2228;-69
2022/09/13 06:03:42;;;;;;;;;;;21.50;67.40;;;;;;4951966;28;2079;-68
2022/09/13 06:06:08;;;;;;;;;;;21.50;67.30;;;;;;4989533;28;1108;-67
2022/09/13 06:08:34;;;;;;;;;;;21.50;67.30;;;;;;4977144;28;1198;-71
2022/09/13 06:11:09;;;;;;;;;;;21.50;67.40;;;;;;4971752;28;765;-71
2022/09/13 06:13:34;;;;;;;;;;;21.50;67.40;;;;;;4970348;28;1958;-69
2022/09/13 06:16:00;;;;;;;;;;;21.50;67.40;;;;;;4985411;28;1073;-68
2022/09/13 06:18:26;;;;;;;;;;;21.50;67.40;;;;;;4983915;28;1195;-69
2022/09/13 06:20:57;;;;;;;;;;;21.50;67.40;;;;;;4990245;28;883;-71
2022/09/13 06:23:22;;;;;;;;;;;21.50;67.40;;;;;;4987626;28;1710;-71
2022/09/13 06:25:48;;;;;;;;;;;21.50;67.40;;;;;;4990392;28;1344;-72
2022/09/13 06:28:13;;;;;;;;;;;21.50;67.40;;;;;;4990663;28;1353;-69
2022/09/13 06:30:39;;;;;;;;;;;21.50;67.40;;;;;;4994817;28;757;-69
2022/09/13 06:33:04;;;;;;;;;;;21.50;67.40;;;;;;4994924;28;1976;-71
2022/09/13 06:35:30;;;;;;;;;;;21.50;67.40;;;;;;4994423;28;1029;-70
2022/09/13 06:37:56;;;;;;;;;;;21.50;67.50;;;;;;4994641;28;1244;-68
2022/09/13 06:40:22;;;;;;;;;;;21.50;67.40;;;;;;4994456;28;1357;-68
2022/09/13 06:42:47;;;;;;;;;;;21.50;67.40;;;;;;4994961;28;831;-67
2022/09/13 06:45:13;;;;;;;;;;;21.50;67.40;;;;;;4994931;28;916;-72
2022/09/13 06:47:38;;;;;;;;;;;21.50;67.40;;;;;;4995093;28;1282;-70
2022/09/13 06:50:04;;;;;;;;;;;21.50;67.40;;;;;;4993829;28;868;-68
2022/09/13 06:52:29;;;;;;;;;;;21.50;67.50;;;;;;4994844;28;856;-69
2022/09/13 06:54:55;;;;;;;;;;;21.50;67.50;;;;;;4994679;28;1911;-69
2022/09/13 06:57:20;;;;;;;;;;;21.50;67.50;;;;;;4994523;28;1301;-69
2022/09/13 06:59:46;;;;;;;;;;;21.50;67.50;;;;;;4995018;28;925;-72
2022/09/13 07:02:13;;;;;;;;;;;21.50;67.50;;;;;;4996647;28;870;-72
2022/09/13 07:04:38;;;;;;;;;;;21.50;67.50;;;;;;4995775;28;808;-73
2022/09/13 07:07:04;;;;;;;;;;;21.50;67.50;;;;;;4995724;28;1216;-72
2022/09/13 07:09:29;;;;;;;;;;;21.50;67.50;;;;;;4994522;28;900;-72
2022/09/13 07:11:55;;;;;;;;;;;21.50;67.60;;;;;;4996256;28;880;-73
2022/09/13 07:14:21;;;;;;;;;;;21.50;67.60;;;;;;4995096;28;1907;-72
2022/09/13 07:16:47;;;;;;;;;;;21.50;67.60;;;;;;4994473;28;1370;-69
2022/09/13 07:19:13;;;;;;;;;;;21.50;67.60;;;;;;4994339;28;1050;-70
2022/09/13 07:21:39;;;;;;;;;;;21.50;67.60;;;;;;4996493;28;888;-70
2022/09/13 07:24:04;;;;;;;;;;;21.50;67.60;;;;;;4996156;28;832;-70
2022/09/13 07:26:30;;;;;;;;;;;21.50;67.60;;;;;;4995789;28;1316;-70
2022/09/13 07:28:57;;;;;;;;;;;21.50;67.60;;;;;;4995240;28;980;-70
2022/09/13 07:31:26;;;;;;;;;;;21.50;67.60;;;;;;4994678;28;1314;-70
2022/09/13 07:33:52;;;;;;;;;;;21.50;67.60;;;;;;4994562;28;1907;-70
2022/09/13 07:36:17;;;;;;;;;;;21.50;67.70;;;;;;4994571;28;1006;-70
2022/09/13 07:38:47;;;;;;;;;;;21.50;67.60;;;;;;4995456;28;1022;-71
2022/09/13 07:41:13;;;;;;;;;;;21.50;67.60;;;;;;4995388;28;875;-70
2022/09/13 07:43:38;;;;;;;;;;;21.50;67.60;;;;;;4995795;28;1353;-70
2022/09/13 07:46:07;;;;;;;;;;;21.50;67.60;;;;;;4995614;28;708;-70
2022/09/13 07:48:33;;;;;;;;;;;21.50;67.60;;;;;;4994987;28;1199;-70
2022/09/13 07:51:00;;;;;;;;;;;21.50;67.60;;;;;;4995355;28;959;-71
2022/09/13 07:53:25;;;;;;;;;;;21.50;67.70;;;;;;4995625;28;1902;-71
2022/09/13 07:55:50;;;;;;;;;;;21.50;67.70;;;;;;4995788;28;804;-71
2022/09/13 07:58:17;;;;;;;;;;;21.50;67.70;;;;;;4977367;28;1180;-71
2022/09/13 08:00:43;;;;;;;;;;;21.50;67.70;;;;;;4995142;28;840;-71
2022/09/13 08:03:09;;;;;;;;;;;21.50;68.40;;;;;;4994362;28;939;-71
2022/09/13 08:05:37;;;;;;;;;;;21.50;67.70;;;;;;4977891;28;1304;-71
2022/09/13 08:08:03;;;;;;;;;;;21.50;67.70;;;;;;4995268;28;1253;-71
2022/09/13 08:10:28;;;;;;;;;;;21.50;67.70;;;;;;4994818;28;729;-70
2022/09/13 08:12:53;;;;;;;;;;;21.50;67.70;;;;;;4995936;28;716;-71
2022/09/13 08:15:19;;;;;;;;;;;21.50;67.70;;;;;;4994849;28;1902;-71
2022/09/13 08:17:44;;;;;;;;;;;21.50;67.70;;;;;;4994790;28;1160;-71
2022/09/13 08:20:10;;;;;;;;;;;21.50;67.70;;;;;;4994509;28;835;-70
2022/09/13 08:22:35;;;;;;;;;;;21.50;67.70;;;;;;4995355;28;820;-71
2022/09/13 08:25:01;;;;;;;;;;;21.50;67.70;;;;;;4995020;28;800;-71
2022/09/13 08:27:27;;;;;;;;;;;21.50;67.70;;;;;;4994765;28;1178;-72
2022/09/13 08:29:52;;;;;;;;;;;21.50;67.80;;;;;;4976431;28;1043;-70
2022/09/13 08:32:17;;;;;;;;;;;21.50;67.80;;;;;;4994881;28;1380;-70
2022/09/13 08:34:43;;;;;;;;;;;21.50;67.80;;;;;;4994743;28;1903;-70
2022/09/13 08:37:09;;;;;;;;;;;21.50;67.80;;;;;;4994665;28;1290;-69
2022/09/13 08:39:34;;;;;;;;;;;21.50;67.80;;;;;;4994136;28;812;-70
2022/09/13 08:42:02;;;;;;;;;;;21.50;67.80;;;;;;4994433;28;856;-70
2022/09/13 08:44:35;;;;;;;;;;;21.50;67.80;;;;;;4993285;28;824;-70
2022/09/13 08:47:15;;;;;;;;;;;21.50;67.80;;;;;;4992752;28;1243;-71
2022/09/13 08:49:45;;;;;;;;;;;21.50;67.80;;;;;;4993984;28;947;-70
2022/09/13 08:52:19;;;;;;;;;;;21.50;67.80;;;;;;4992540;28;848;-70
2022/09/13 08:54:45;;;;;;;;;;;21.50;67.80;;;;;;4982109;28;1922;-71
2022/09/13 08:57:10;;;;;;;;;;;21.50;67.80;;;;;;4991141;28;1198;-71
2022/09/13 08:59:54;;;;;;;;;;;21.50;67.80;;;;;;4991391;28;848;-71
2022/09/13 09:02:19;;;;;;;;;;;21.50;67.80;;;;;;4991222;28;2179;-69
2022/09/13 09:04:47;;;;;;;;;;;21.50;67.80;;;;;;4992321;28;1060;-70
2022/09/13 09:07:17;;;;;;;;;;;21.50;67.80;;;;;;4990783;28;1277;-71
2022/09/13 09:09:46;;;;;;;;;;;21.50;67.80;;;;;;4991335;28;821;-68
2022/09/13 09:12:26;;;;;;;;;;;21.50;68.60;;;;;;4992664;28;734;-68
2022/09/13 09:15:10;;;;;;;;;;;21.50;67.90;;;;;;4991135;28;1910;-68
2022/09/13 09:17:53;;;;;;;;;;;21.50;67.90;;;;;;4991937;28;1299;-68
2022/09/13 09:20:23;;;;;;;;;;;21.50;67.90;;;;;;4991671;28;855;-68
2022/09/13 09:22:49;;;;;;;;;;;21.50;67.80;;;;;;4991123;28;1057;-70
2022/09/13 09:25:15;;;;;;;;;;;21.50;67.90;;;;;;4990403;28;915;-68
2022/09/13 09:27:40;;;;;;;;;;;21.50;67.80;;;;;;4991868;28;1222;-68
2022/09/13 09:30:11;;;;;;;;;;;21.50;68.60;;;;;;4991549;28;891;-71
2022/09/13 09:32:40;;;;;;;;;;;21.50;67.90;;;;;;4992896;28;1226;-68
2022/09/13 09:35:26;;;;;;;;;;;21.50;67.90;;;;;;4993740;28;1887;-68
2022/09/13 09:38:03;;;;;;;;;;;21.50;67.90;;;;;;4993429;28;1231;-68
2022/09/13 09:40:29;;;;;;;;;;;21.50;67.90;;;;;;4989354;28;1151;-68
2022/09/13 09:42:54;;;;;;;;;;;21.50;67.90;;;;;;4992065;28;2220;-68
2022/09/13 09:45:22;;;;;;;;;;;21.50;67.90;;;;;;4967618;28;1990;-68
2022/09/13 09:47:49;;;;;;;;;;;21.50;67.90;;;;;;4993379;28;1538;-68
2022/09/13 09:50:26;;;;;;;;;;;21.50;67.90;;;;;;4990743;28;1777;-68
2022/09/13 09:52:54;;;;;;;;;;;21.50;67.90;;;;;;4984809;28;1449;-68
2022/09/13 09:55:27;;;;;;;;;;;21.50;68.00;;;;;;4973447;28;1958;-68
2022/09/13 09:57:52;;;;;;;;;;;21.50;67.90;;;;;;4993362;28;1626;-68
2022/09/13 10:00:19;;;;;;;;;;;21.50;68.00;;;;;;4991463;28;1734;-68
2022/09/13 10:02:45;;;;;;;;;;;21.50;68.00;;;;;;4977143;28;1682;-69
2022/09/13 10:05:13;;;;;;;;;;;21.50;68.00;;;;;;4973799;28;891;-69
2022/09/13 10:07:38;;;;;;;;;;;21.50;68.00;;;;;;4972698;28;1404;-68
2022/09/13 10:10:05;;;;;;;;;;;21.50;68.00;;;;;;4971345;28;1349;-68
2022/09/13 10:12:34;;;;;;;;;;;21.50;68.00;;;;;;4987393;28;1365;-68
2022/09/13 10:15:12;;;;;;;;;;;21.50;68.10;;;;;;4976170;28;1898;-70
2022/09/13 10:17:38;;;;;;;;;;;21.50;68.00;;;;;;4973575;28;2270;-69
2022/09/13 10:20:12;;;;;;;;;;;21.50;68.10;;;;;;4992485;28;1623;-69
2022/09/13 10:22:38;;;;;;;;;;;21.50;68.10;;;;;;4992549;28;1116;-70
2022/09/13 10:25:12;;;;;;;;;;;21.50;68.10;;;;;;4975337;28;1108;-69
2022/09/13 10:27:38;;;;;;;;;;;21.50;68.10;;;;;;4972351;28;1289;-69
2022/09/13 10:30:05;;;;;;;;;;;21.50;68.10;;;;;;4972261;28;958;-69
2022/09/13 10:32:30;;;;;;;;;;;21.50;68.10;;;;;;4983791;28;1298;-68
2022/09/13 10:34:58;;;;;;;;;;;21.50;68.10;;;;;;4992687;28;1906;-68
2022/09/13 10:37:25;;;;;;;;;;;21.60;68.10;;;;;;4993240;28;1158;-68
2022/09/13 10:39:52;;;;;;;;;;;21.60;68.10;;;;;;4992210;28;833;-68
2022/09/13 10:42:19;;;;;;;;;;;21.50;68.10;;;;;;4991462;28;862;-68
2022/09/13 10:44:45;;;;;;;;;;;21.50;68.10;;;;;;4992379;28;836;-68
2022/09/13 10:47:32;;;;;;;;;;;21.50;68.10;;;;;;4991050;28;1286;-68
2022/09/13 10:50:00;;;;;;;;;;;21.60;68.20;;;;;;4991749;28;1136;-68
2022/09/13 10:52:26;;;;;;;;;;;21.60;68.20;;;;;;4991590;28;864;-68
2022/09/13 10:54:52;;;;;;;;;;;21.50;68.10;;;;;;4992135;28;1952;-68
2022/09/13 10:57:26;;;;;;;;;;;21.50;68.10;;;;;;4990953;28;1271;-68
2022/09/13 10:59:51;;;;;;;;;;;21.60;68.20;;;;;;4986685;28;1109;-68
2022/09/13 11:02:36;;;;;;;;;;;21.60;68.20;;;;;;4971729;28;1144;-68
2022/09/13 11:05:10;;;;;;;;;;;21.60;68.20;;;;;;4972980;28;976;-68
2022/09/13 11:07:54;;;;;;;;;;;21.60;68.20;;;;;;4972836;28;1185;-68
2022/09/13 11:10:22;;;;;;;;;;;21.60;68.20;;;;;;4971487;28;920;-68
2022/09/13 11:12:54;;;;;;;;;;;21.60;68.20;;;;;;4971691;28;919;-68
2022/09/13 11:15:37;;;;;;;;;;;21.60;68.20;;;;;;4972749;28;1946;-68
2022/09/13 11:18:09;;;;;;;;;;;21.60;68.30;;;;;;4975833;28;1196;-68
2022/09/13 11:20:50;;;;;;;;;;;21.60;68.30;;;;;;4958372;28;1181;-68
2022/09/13 11:23:34;;;;;;;;;;;21.60;68.30;;;;;;4975297;28;828;-67
2022/09/13 11:26:07;;;;;;;;;;;21.60;68.30;;;;;;4975848;28;828;-67
2022/09/13 11:28:51;;;;;;;;;;;21.50;68.20;;;;;;4974124;28;1169;-67
2022/09/13 11:31:19;;;;;;;;;;;21.50;68.20;;;;;;4977413;28;1384;-67
2022/09/13 11:33:51;;;;;;;;;;;21.60;68.30;;;;;;4995567;28;1902;-67
2022/09/13 11:36:25;;;;;;;;;;;21.60;68.30;;;;;;4994160;28;884;-67
2022/09/13 11:38:53;;;;;;;;;;;21.60;68.30;;;;;;4994743;28;887;-67
2022/09/13 11:41:26;;;;;;;;;;;21.60;68.30;;;;;;4977331;28;1352;-67
2022/09/13 11:43:58;;;;;;;;;;;21.60;68.30;;;;;;4995221;28;1247;-67
2022/09/13 11:46:33;;;;;;;;;;;21.60;68.30;;;;;;4975612;28;1253;-67
2022/09/13 11:49:14;;;;;;;;;;;21.60;68.30;;;;;;4976035;28;887;-68
2022/09/13 11:51:42;;;;;;;;;;;21.60;68.30;;;;;;4976181;28;829;-67
2022/09/13 11:54:31;;;;;;;;;;;21.60;69.10;;;;;;4975564;28;1907;-68
2022/09/13 11:56:58;;;;;;;;;;;21.60;68.30;;;;;;4958003;28;1287;-68
2022/09/13 11:59:23;;;;;;;;;;;21.60;68.40;;;;;;4974182;28;876;-67
2022/09/13 12:01:54;;;;;;;;;;;21.60;68.30;;;;;;4975473;28;809;-67
2022/09/13 12:04:24;;;;;;;;;;;21.60;68.40;;;;;;4974480;28;809;-67
2022/09/13 12:06:55;;;;;;;;;;;21.60;68.40;;;;;;4974776;28;1220;-67
2022/09/13 12:09:21;;;;;;;;;;;21.60;68.40;;;;;;4973303;28;837;-68
2022/09/13 12:11:51;;;;;;;;;;;21.60;68.40;;;;;;4973980;28;904;-68
2022/09/13 12:14:18;;;;;;;;;;;21.60;68.30;;;;;;4974303;28;1903;-67
2022/09/13 12:16:45;;;;;;;;;;;21.50;68.30;;;;;;4973668;28;1224;-67
2022/09/13 12:19:12;;;;;;;;;;;21.60;68.40;;;;;;4973521;28;892;-68
2022/09/13 12:21:38;;;;;;;;;;;21.60;68.30;;;;;;4983854;28;2268;-68
2022/09/13 12:24:10;;;;;;;;;;;21.60;68.40;;;;;;4992822;28;1062;-68
2022/09/13 12:26:40;;;;;;;;;;;21.50;68.30;;;;;;4969713;28;1307;-69
2022/09/13 12:29:10;;;;;;;;;;;21.60;68.40;;;;;;4992774;28;828;-68
2022/09/13 12:31:35;;;;;;;;;;;21.60;68.40;;;;;;4993979;28;1348;-68
2022/09/13 12:34:03;;;;;;;;;;;21.60;68.40;;;;;;4993273;28;1886;-68
2022/09/13 12:36:31;;;;;;;;;;;21.60;68.40;;;;;;4993533;28;1570;-68
2022/09/13 12:39:15;;;;;;;;;;;21.60;68.40;;;;;;4994402;28;1035;-68
2022/09/13 12:41:48;;;;;;;;;;;21.60;68.40;;;;;;4995511;28;813;-68
2022/09/13 12:44:34;;;;;;;;;;;21.60;68.40;;;;;;4992830;28;883;-68
2022/09/13 12:47:02;;;;;;;;;;;21.60;68.40;;;;;;4982496;28;1200;-68
2022/09/13 12:49:33;;;;;;;;;;;21.60;68.40;;;;;;4993447;28;888;-68
2022/09/13 12:52:11;;;;;;;;;;;21.60;68.40;;;;;;4993168;28;1014;-68
2022/09/13 12:54:56;;;;;;;;;;;21.60;68.40;;;;;;4993999;28;2018;-68
2022/09/13 12:57:27;;;;;;;;;;;21.60;68.40;;;;;;4994199;28;1167;-68
2022/09/13 13:00:12;;;;;;;;;;;21.60;68.50;;;;;;4990530;28;2195;-69
2022/09/13 13:02:39;;;;;;;;;;;21.60;68.50;;;;;;4990513;28;1316;-69
2022/09/13 13:05:17;;;;;;;;;;;21.60;68.50;;;;;;4991088;28;1198;-67
2022/09/13 13:07:45;;;;;;;;;;;21.60;68.50;;;;;;4990197;28;1339;-70
2022/09/13 13:10:23;;;;;;;;;;;21.60;68.50;;;;;;4990615;28;1309;-69
2022/09/13 13:12:49;;;;;;;;;;;21.60;68.50;;;;;;4991567;28;1252;-68
2022/09/13 13:15:14;;;;;;;;;;;21.60;68.50;;;;;;4991717;28;1981;-68
2022/09/13 13:17:46;;;;;;;;;;;21.60;68.50;;;;;;4992441;28;1279;-70
2022/09/13 13:20:31;;;;;;;;;;;21.60;68.50;;;;;;4990773;28;1218;-70
2022/09/13 13:23:03;;;;;;;;;;;21.60;68.60;;;;;;4990383;28;1312;-71
2022/09/13 13:25:38;;;;;;;;;;;21.60;68.60;;;;;;4990781;28;1206;-69
2022/09/13 13:28:22;;;;;;;;;;;21.60;68.60;;;;;;4991970;28;1309;-67
2022/09/13 13:30:51;;;;;;;;;;;21.60;68.70;;;;;;4991851;28;1217;-69
2022/09/13 13:33:21;;;;;;;;;;;21.60;68.70;;;;;;4987497;28;1950;-69
2022/09/13 13:35:46;;;;;;;;;;;21.60;68.70;;;;;;4983876;28;1217;-69
2022/09/13 13:38:15;;;;;;;;;;;21.60;68.70;;;;;;4990679;28;1283;-69
2022/09/13 13:40:41;;;;;;;;;;;21.60;68.70;;;;;;4989763;28;1030;-69
2022/09/13 13:43:27;;;;;;;;;;;21.60;68.70;;;;;;4990419;28;808;-69
2022/09/13 13:45:57;;;;;;;;;;;21.60;68.70;;;;;;4990019;28;800;-69
2022/09/13 13:48:52;;;;;;;;;;;21.50;68.60;;;;;;4989360;28;1177;-69
2022/09/13 13:51:19;;;;;;;;;;;21.60;68.70;;;;;;4982350;28;1291;-69
2022/09/13 13:53:45;;;;;;;;;;;21.60;68.80;;;;;;4989881;28;1907;-69
2022/09/13 13:56:14;;;;;;;;;;;21.60;68.80;;;;;;4990220;28;871;-69
2022/09/13 13:58:42;;;;;;;;;;;21.60;68.70;;;;;;4990354;28;1165;-68
2022/09/13 14:01:10;;;;;;;;;;;21.60;68.80;;;;;;4991415;28;972;-68
2022/09/13 14:03:50;;;;;;;;;;;21.60;68.70;;;;;;4973953;28;1375;-68
2022/09/13 14:06:18;;;;;;;;;;;21.60;68.80;;;;;;4989730;28;925;-69
2022/09/13 14:08:49;;;;;;;;;;;21.50;68.70;;;;;;4990373;28;1244;-69
2022/09/13 14:11:18;;;;;;;;;;;21.60;68.80;;;;;;4991279;28;947;-69
2022/09/13 14:14:07;;;;;;;;;;;21.60;68.80;;;;;;4990771;28;1985;-68
2022/09/13 14:16:48;;;;;;;;;;;21.60;68.80;;;;;;4989742;28;1215;-69
2022/09/13 14:19:22;;;;;;;;;;;21.60;68.80;;;;;;4989245;28;1038;-69
2022/09/13 14:22:04;;;;;;;;;;;21.60;68.80;;;;;;4991158;28;891;-69
2022/09/13 14:24:33;;;;;;;;;;;21.60;68.80;;;;;;4989265;28;797;-69
2022/09/13 14:27:00;;;;;;;;;;;21.60;68.90;;;;;;4989792;28;1658;-69
2022/09/13 14:29:25;;;;;;;;;;;21.60;68.90;;;;;;4989117;28;848;-68
2022/09/13 14:31:52;;;;;;;;;;;21.60;68.90;;;;;;4989923;28;1802;-68
2022/09/13 14:34:26;;;;;;;;;;;21.60;68.90;;;;;;4984849;28;2238;-68
2022/09/13 14:36:53;;;;;;;;;;;21.60;68.90;;;;;;4985331;28;1287;-69
2022/09/13 14:39:18;;;;;;;;;;;21.60;68.90;;;;;;4990122;28;825;-69
2022/09/13 14:41:44;;;;;;;;;;;21.60;68.90;;;;;;4991342;28;821;-68
2022/09/13 14:44:22;;;;;;;;;;;21.60;68.90;;;;;;4991141;28;872;-68
2022/09/13 14:46:49;;;;;;;;;;;21.60;68.90;;;;;;4989594;28;1208;-69
2022/09/13 14:49:19;;;;;;;;;;;21.60;68.90;;;;;;4988668;28;1081;-68